sensor_id;sensor_type;location;lat;lon;timestamp;pressure;altitude;pressure_sealevel;temperature;humidity
16331;BME280;8275;48.206;16.340;2023-05-20T00:01:27;99761.84;;;18.41;50.80
16331;BME280;8275;48.206;16.340;2023-05-20T00:03:57;99759.34;;;18.40;50.98
16331;BME280;8275;48.206;16.340;2023-05-20T00:06:26;99759.34;;;18.40;51.01
16331;BME280;8275;48.206;16.340;2023-05-20T00:08:54;99756.56;;;18.40;51.03
16331;BME280;8275;48.206;16.340;2023-05-20T00:11:22;99762.94;;;18.40;51.15
16331;BME280;8275;48.206;16.340;2023-05-20T00:13:51;99764.88;;;18.40;51.07
16331;BME280;8275;48.206;16.340;2023-05-20T00:16:19;99761.31;;;18.39;51.13
16331;BME280;8275;48.206;16.340;2023-05-20T00:18:48;99746.59;;;18.39;51.19
16331;BME280;8275;48.206;16.340;2023-05-20T00:21:18;99753.56;;;18.36;51.32
16331;BME280;8275;48.206;16.340;2023-05-20T00:23:46;99754.66;;;18.35;51.32
16331;BME280;8275;48.206;16.340;2023-05-20T00:26:15;99752.19;;;18.34;51.33
16331;BME280;8275;48.206;16.340;2023-05-20T00:28:43;99760.00;;;18.32;51.56
16331;BME280;8275;48.206;16.340;2023-05-20T00:31:11;99763.34;;;18.29;51.65
16331;BME280;8275;48.206;16.340;2023-05-20T00:33:40;99762.81;;;18.27;51.51
16331;BME280;8275;48.206;16.340;2023-05-20T00:36:08;99752.31;;;18.23;51.55
16331;BME280;8275;48.206;16.340;2023-05-20T00:38:38;99752.09;;;18.20;51.61
16331;BME280;8275;48.206;16.340;2023-05-20T00:41:06;99747.66;;;18.19;51.66
16331;BME280;8275;48.206;16.340;2023-05-20T00:43:35;99743.50;;;18.16;51.79
16331;BME280;8275;48.206;16.340;2023-05-20T00:46:04;99738.56;;;18.13;51.69
16331;BME280;8275;48.206;16.340;2023-05-20T00:48:39;99741.09;;;18.10;51.77
16331;BME280;8275;48.206;16.340;2023-05-20T00:51:09;99743.88;;;18.10;51.74
16331;BME280;8275;48.206;16.340;2023-05-20T00:53:39;99732.56;;;18.06;52.04
16331;BME280;8275;48.206;16.340;2023-05-20T00:56:09;99735.91;;;18.03;52.05
16331;BME280;8275;48.206;16.340;2023-05-20T00:58:37;99742.03;;;18.00;52.04
16331;BME280;8275;48.206;16.340;2023-05-20T01:01:07;99739.88;;;17.97;52.00
16331;BME280;8275;48.206;16.340;2023-05-20T01:03:35;99729.88;;;17.96;51.81
16331;BME280;8275;48.206;16.340;2023-05-20T01:06:04;99723.81;;;17.94;51.96
16331;BME280;8275;48.206;16.340;2023-05-20T01:08:33;99728.53;;;17.94;52.01
16331;BME280;8275;48.206;16.340;2023-05-20T01:11:08;99719.97;;;17.90;51.98
16331;BME280;8275;48.206;16.340;2023-05-20T01:13:42;99721.09;;;17.89;52.18
16331;BME280;8275;48.206;16.340;2023-05-20T01:16:14;99732.47;;;17.88;52.10
16331;BME280;8275;48.206;16.340;2023-05-20T01:18:46;99725.25;;;17.87;52.11
16331;BME280;8275;48.206;16.340;2023-05-20T01:21:16;99718.34;;;17.84;52.37
16331;BME280;8275;48.206;16.340;2023-05-20T01:23:47;99712.81;;;17.84;52.33
16331;BME280;8275;48.206;16.340;2023-05-20T01:26:15;99717.03;;;17.82;52.41
16331;BME280;8275;48.206;16.340;2023-05-20T01:28:45;99717.28;;;17.80;52.44
16331;BME280;8275;48.206;16.340;2023-05-20T01:31:17;99725.91;;;17.79;52.41
16331;BME280;8275;48.206;16.340;2023-05-20T01:33:51;99722.63;;;17.77;52.45
16331;BME280;8275;48.206;16.340;2023-05-20T01:36:22;99722.09;;;17.75;52.49
16331;BME280;8275;48.206;16.340;2023-05-20T01:38:52;99717.66;;;17.74;52.37
16331;BME280;8275;48.206;16.340;2023-05-20T01:41:23;99727.38;;;17.71;52.44
16331;BME280;8275;48.206;16.340;2023-05-20T01:43:54;99725.72;;;17.70;52.53
16331;BME280;8275;48.206;16.340;2023-05-20T01:46:23;99727.13;;;17.68;52.44
16331;BME280;8275;48.206;16.340;2023-05-20T01:48:51;99720.22;;;17.65;52.48
16331;BME280;8275;48.206;16.340;2023-05-20T01:51:20;99723.28;;;17.64;52.66
16331;BME280;8275;48.206;16.340;2023-05-20T01:53:49;99719.97;;;17.62;52.58
16331;BME280;8275;48.206;16.340;2023-05-20T01:56:19;99723.03;;;17.60;52.68
16331;BME280;8275;48.206;16.340;2023-05-20T01:58:48;99709.78;;;17.57;52.50
16331;BME280;8275;48.206;16.340;2023-05-20T02:01:16;99715.59;;;17.56;52.69
16331;BME280;8275;48.206;16.340;2023-05-20T02:03:45;99713.13;;;17.54;52.74
16331;BME280;8275;48.206;16.340;2023-05-20T02:06:13;99716.47;;;17.51;52.80
16331;BME280;8275;48.206;16.340;2023-05-20T02:08:41;99718.69;;;17.49;52.71
16331;BME280;8275;48.206;16.340;2023-05-20T02:11:10;99718.97;;;17.47;52.74
16331;BME280;8275;48.206;16.340;2023-05-20T02:13:40;99716.78;;;17.44;52.85
16331;BME280;8275;48.206;16.340;2023-05-20T02:16:08;99719.84;;;17.43;52.67
16331;BME280;8275;48.206;16.340;2023-05-20T02:18:36;99715.44;;;17.42;52.76
16331;BME280;8275;48.206;16.340;2023-05-20T02:21:05;99717.66;;;17.40;52.65
16331;BME280;8275;48.206;16.340;2023-05-20T02:23:34;99723.47;;;17.38;52.74
16331;BME280;8275;48.206;16.340;2023-05-20T02:26:02;99724.59;;;17.37;52.70
16331;BME280;8275;48.206;16.340;2023-05-20T02:28:31;99722.09;;;17.36;52.91
16331;BME280;8275;48.206;16.340;2023-05-20T02:31:01;99712.47;;;17.33;52.85
16331;BME280;8275;48.206;16.340;2023-05-20T02:33:29;99713.56;;;17.32;52.88
16331;BME280;8275;48.206;16.340;2023-05-20T02:35:58;99719.41;;;17.31;53.01
16331;BME280;8275;48.206;16.340;2023-05-20T02:38:26;99724.41;;;17.29;52.98
16331;BME280;8275;48.206;16.340;2023-05-20T02:40:55;99721.06;;;17.27;53.01
16331;BME280;8275;48.206;16.340;2023-05-20T02:43:25;99715.00;;;17.25;53.01
16331;BME280;8275;48.206;16.340;2023-05-20T02:45:53;99718.91;;;17.24;52.90
16331;BME280;8275;48.206;16.340;2023-05-20T02:48:24;99721.94;;;17.22;53.07
16331;BME280;8275;48.206;16.340;2023-05-20T02:50:52;99714.22;;;17.19;53.04
16331;BME280;8275;48.206;16.340;2023-05-20T02:53:20;99725.31;;;17.19;53.07
16331;BME280;8275;48.206;16.340;2023-05-20T02:55:49;99719.50;;;17.16;53.01
16331;BME280;8275;48.206;16.340;2023-05-20T02:58:17;99732.81;;;17.14;52.94
16331;BME280;8275;48.206;16.340;2023-05-20T03:00:52;99727.56;;;17.12;53.22
16331;BME280;8275;48.206;16.340;2023-05-20T03:03:20;99725.91;;;17.11;53.21
16331;BME280;8275;48.206;16.340;2023-05-20T03:05:50;99719.00;;;17.09;52.94
16331;BME280;8275;48.206;16.340;2023-05-20T03:08:21;99718.47;;;17.07;53.25
16331;BME280;8275;48.206;16.340;2023-05-20T03:10:49;99718.75;;;17.05;53.25
16331;BME280;8275;48.206;16.340;2023-05-20T03:13:18;99723.75;;;17.03;53.28
16331;BME280;8275;48.206;16.340;2023-05-20T03:15:46;99713.78;;;17.02;53.25
16331;BME280;8275;48.206;16.340;2023-05-20T03:18:15;99723.22;;;17.01;53.20
16331;BME280;8275;48.206;16.340;2023-05-20T03:20:45;99727.41;;;16.99;53.41
16331;BME280;8275;48.206;16.340;2023-05-20T03:23:15;99720.19;;;16.98;53.36
16331;BME280;8275;48.206;16.340;2023-05-20T03:25:43;99722.13;;;16.97;53.43
16331;BME280;8275;48.206;16.340;2023-05-20T03:28:12;99722.13;;;16.97;53.28
16331;BME280;8275;48.206;16.340;2023-05-20T03:30:40;99727.13;;;16.95;53.46
16331;BME280;8275;48.206;16.340;2023-05-20T03:33:09;99729.91;;;16.95;53.33
16331;BME280;8275;48.206;16.340;2023-05-20T03:35:37;99733.78;;;16.94;53.33
16331;BME280;8275;48.206;16.340;2023-05-20T03:38:06;99734.59;;;16.95;53.36
16331;BME280;8275;48.206;16.340;2023-05-20T03:40:36;99735.44;;;16.95;53.56
16331;BME280;8275;48.206;16.340;2023-05-20T03:43:04;99742.63;;;16.96;53.44
16331;BME280;8275;48.206;16.340;2023-05-20T03:45:32;99734.34;;;16.96;53.29
16331;BME280;8275;48.206;16.340;2023-05-20T03:48:01;99739.56;;;16.98;53.39
16331;BME280;8275;48.206;16.340;2023-05-20T03:50:30;99743.72;;;17.00;53.31
16331;BME280;8275;48.206;16.340;2023-05-20T03:52:59;99752.53;;;17.02;53.41
16331;BME280;8275;48.206;16.340;2023-05-20T03:55:27;99748.09;;;17.06;53.39
16331;BME280;8275;48.206;16.340;2023-05-20T03:57:57;99745.88;;;17.08;53.38
16331;BME280;8275;48.206;16.340;2023-05-20T04:00:26;99746.13;;;17.12;53.44
16331;BME280;8275;48.206;16.340;2023-05-20T04:02:57;99738.06;;;17.15;53.30
16331;BME280;8275;48.206;16.340;2023-05-20T04:05:26;99735.56;;;17.19;53.36
16331;BME280;8275;48.206;16.340;2023-05-20T04:07:55;99728.31;;;17.23;53.24
16331;BME280;8275;48.206;16.340;2023-05-20T04:10:24;99729.38;;;17.27;53.30
16331;BME280;8275;48.206;16.340;2023-05-20T04:12:52;99720.22;;;17.31;53.19
16331;BME280;8275;48.206;16.340;2023-05-20T04:15:22;99725.72;;;17.36;53.24
16331;BME280;8275;48.206;16.340;2023-05-20T04:17:51;99715.44;;;17.42;53.18
16331;BME280;8275;48.206;16.340;2023-05-20T04:20:20;99728.41;;;17.46;53.38
16331;BME280;8275;48.206;16.340;2023-05-20T04:22:50;99738.91;;;17.49;53.18
16331;BME280;8275;48.206;16.340;2023-05-20T04:25:20;99743.88;;;17.52;53.28
16331;BME280;8275;48.206;16.340;2023-05-20T04:27:48;99743.31;;;17.56;53.15
16331;BME280;8275;48.206;16.340;2023-05-20T04:30:17;99749.09;;;17.59;53.18
16331;BME280;8275;48.206;16.340;2023-05-20T04:32:49;99757.66;;;17.63;53.15
16331;BME280;8275;48.206;16.340;2023-05-20T04:35:18;99757.88;;;17.66;53.16
16331;BME280;8275;48.206;16.340;2023-05-20T04:37:46;99758.97;;;17.70;53.00
16331;BME280;8275;48.206;16.340;2023-05-20T04:40:15;99760.88;;;17.75;52.94
16331;BME280;8275;48.206;16.340;2023-05-20T04:42:45;99760.81;;;17.80;52.87
16331;BME280;8275;48.206;16.340;2023-05-20T04:45:13;99764.38;;;17.85;52.86
16331;BME280;8275;48.206;16.340;2023-05-20T04:47:42;99761.56;;;17.90;53.03
16331;BME280;8275;48.206;16.340;2023-05-20T04:50:13;99765.91;;;17.96;52.81
16331;BME280;8275;48.206;16.340;2023-05-20T04:52:42;99766.34;;;18.08;52.97
16331;BME280;8275;48.206;16.340;2023-05-20T04:55:12;99753.97;;;18.24;52.89
16331;BME280;8275;48.206;16.340;2023-05-20T04:57:41;99747.78;;;18.56;52.62
16331;BME280;8275;48.206;16.340;2023-05-20T05:00:11;99745.13;;;18.88;52.04
16331;BME280;8275;48.206;16.340;2023-05-20T05:02:40;99745.28;;;19.16;51.53
16331;BME280;8275;48.206;16.340;2023-05-20T05:05:09;99749.34;;;19.42;51.24
16331;BME280;8275;48.206;16.340;2023-05-20T05:07:39;99754.00;;;19.79;50.87
16331;BME280;8275;48.206;16.340;2023-05-20T05:10:08;99748.31;;;20.16;50.20
16331;BME280;8275;48.206;16.340;2023-05-20T05:12:37;99745.78;;;20.60;49.76
16331;BME280;8275;48.206;16.340;2023-05-20T05:15:07;99737.78;;;20.94;48.90
16331;BME280;8275;48.206;16.340;2023-05-20T05:17:36;99747.03;;;21.17;48.60
16331;BME280;8275;48.206;16.340;2023-05-20T05:20:06;99740.94;;;21.15;48.63
16331;BME280;8275;48.206;16.340;2023-05-20T05:22:35;99750.13;;;21.02;48.69
16331;BME280;8275;48.206;16.340;2023-05-20T05:25:08;99748.81;;;20.86;48.63
16331;BME280;8275;48.206;16.340;2023-05-20T05:27:37;99746.69;;;20.69;48.38
16331;BME280;8275;48.206;16.340;2023-05-20T05:30:08;99748.84;;;20.59;48.43
16331;BME280;8275;48.206;16.340;2023-05-20T05:32:37;99745.88;;;20.55;48.99
16331;BME280;8275;48.206;16.340;2023-05-20T05:35:06;99750.63;;;20.55;48.97
16331;BME280;8275;48.206;16.340;2023-05-20T05:37:34;99754.22;;;20.55;49.01
16331;BME280;8275;48.206;16.340;2023-05-20T05:40:04;99754.41;;;20.59;48.66
16331;BME280;8275;48.206;16.340;2023-05-20T05:42:34;99754.72;;;20.71;48.97
16331;BME280;8275;48.206;16.340;2023-05-20T05:45:03;99747.75;;;20.95;48.78
16331;BME280;8275;48.206;16.340;2023-05-20T05:47:32;99738.84;;;21.21;48.31
16331;BME280;8275;48.206;16.340;2023-05-20T05:50:00;99739.31;;;21.36;47.64
16331;BME280;8275;48.206;16.340;2023-05-20T05:52:29;99730.19;;;21.44;47.64
16331;BME280;8275;48.206;16.340;2023-05-20T05:54:57;99729.94;;;21.54;47.23
16331;BME280;8275;48.206;16.340;2023-05-20T05:57:26;99727.72;;;21.65;47.39
16331;BME280;8275;48.206;16.340;2023-05-20T05:59:55;99723.34;;;21.73;46.64
16331;BME280;8275;48.206;16.340;2023-05-20T06:02:24;99730.75;;;21.77;46.41
16331;BME280;8275;48.206;16.340;2023-05-20T06:04:53;99718.44;;;21.78;46.65
16331;BME280;8275;48.206;16.340;2023-05-20T06:07:22;99716.19;;;21.80;46.55
16331;BME280;8275;48.206;16.340;2023-05-20T06:09:51;99720.09;;;21.79;46.11
16331;BME280;8275;48.206;16.340;2023-05-20T06:12:19;99714.53;;;21.79;46.13
16331;BME280;8275;48.206;16.340;2023-05-20T06:14:48;99713.59;;;21.84;45.95
16331;BME280;8275;48.206;16.340;2023-05-20T06:17:17;99707.25;;;21.92;46.01
16331;BME280;8275;48.206;16.340;2023-05-20T06:19:46;99707.78;;;22.02;46.32
16331;BME280;8275;48.206;16.340;2023-05-20T06:22:14;99708.66;;;22.11;45.65
16331;BME280;8275;48.206;16.340;2023-05-20T06:24:43;99711.47;;;22.20;45.55
16331;BME280;8275;48.206;16.340;2023-05-20T06:27:11;99715.44;;;22.27;45.71
16331;BME280;8275;48.206;16.340;2023-05-20T06:29:40;99718.25;;;22.36;45.77
16331;BME280;8275;48.206;16.340;2023-05-20T06:32:10;99723.22;;;22.48;45.47
16331;BME280;8275;48.206;16.340;2023-05-20T06:34:40;99724.91;;;22.57;45.36
16331;BME280;8275;48.206;16.340;2023-05-20T06:37:08;99727.09;;;22.69;44.90
16331;BME280;8275;48.206;16.340;2023-05-20T06:39:37;99723.53;;;22.77;45.01
16331;BME280;8275;48.206;16.340;2023-05-20T06:42:05;99719.91;;;22.85;44.70
16331;BME280;8275;48.206;16.340;2023-05-20T06:44:34;99719.91;;;22.93;44.51
16331;BME280;8275;48.206;16.340;2023-05-20T06:47:02;99725.53;;;23.02;44.34
16331;BME280;8275;48.206;16.340;2023-05-20T06:49:31;99726.50;;;23.15;44.16
16331;BME280;8275;48.206;16.340;2023-05-20T06:52:01;99728.66;;;23.26;43.92
16331;BME280;8275;48.206;16.340;2023-05-20T06:54:29;99715.84;;;23.34;43.86
16331;BME280;8275;48.206;16.340;2023-05-20T06:57:00;99715.19;;;23.45;43.88
16331;BME280;8275;48.206;16.340;2023-05-20T06:59:28;99713.88;;;23.51;43.74
16331;BME280;8275;48.206;16.340;2023-05-20T07:01:57;99707.44;;;23.59;43.68
16331;BME280;8275;48.206;16.340;2023-05-20T07:04:25;99706.59;;;23.67;43.89
16331;BME280;8275;48.206;16.340;2023-05-20T07:06:53;99711.38;;;23.76;43.76
16331;BME280;8275;48.206;16.340;2023-05-20T07:09:23;99706.72;;;23.88;43.75
16331;BME280;8275;48.206;16.340;2023-05-20T07:11:52;99700.25;;;24.05;43.50
16331;BME280;8275;48.206;16.340;2023-05-20T07:14:20;99706.97;;;24.21;43.41
16331;BME280;8275;48.206;16.340;2023-05-20T07:16:49;99696.19;;;24.31;43.06
16331;BME280;8275;48.206;16.340;2023-05-20T07:19:17;99695.84;;;24.41;42.79
16331;BME280;8275;48.206;16.340;2023-05-20T07:21:45;99686.22;;;24.51;42.65
16331;BME280;8275;48.206;16.340;2023-05-20T07:24:15;99687.00;;;24.60;42.30
16331;BME280;8275;48.206;16.340;2023-05-20T07:26:45;99687.63;;;24.66;42.12
16331;BME280;8275;48.206;16.340;2023-05-20T07:29:14;99689.25;;;24.67;42.14
16331;BME280;8275;48.206;16.340;2023-05-20T07:31:42;99685.09;;;24.73;41.98
16331;BME280;8275;48.206;16.340;2023-05-20T07:34:11;99678.66;;;24.81;41.71
16331;BME280;8275;48.206;16.340;2023-05-20T07:36:39;99682.50;;;24.97;41.81
16331;BME280;8275;48.206;16.340;2023-05-20T07:39:08;99681.59;;;25.05;41.34
16331;BME280;8275;48.206;16.340;2023-05-20T07:41:41;99684.81;;;25.16;41.16
16331;BME280;8275;48.206;16.340;2023-05-20T07:44:10;99685.47;;;25.33;41.16
16331;BME280;8275;48.206;16.340;2023-05-20T07:46:39;99680.22;;;25.52;40.70
16331;BME280;8275;48.206;16.340;2023-05-20T07:49:08;99684.00;;;25.68;40.78
16331;BME280;8275;48.206;16.340;2023-05-20T07:51:37;99679.16;;;25.90;40.57
16331;BME280;8275;48.206;16.340;2023-05-20T07:54:05;99674.16;;;26.07;40.29
16331;BME280;8275;48.206;16.340;2023-05-20T07:56:34;99681.56;;;26.24;40.11
16331;BME280;8275;48.206;16.340;2023-05-20T07:59:02;99664.59;;;26.32;40.07
16331;BME280;8275;48.206;16.340;2023-05-20T08:01:32;99670.69;;;26.34;39.50
16331;BME280;8275;48.206;16.340;2023-05-20T08:04:01;99661.66;;;26.41;39.62
16331;BME280;8275;48.206;16.340;2023-05-20T08:06:30;99663.41;;;26.58;39.49
16331;BME280;8275;48.206;16.340;2023-05-20T08:08:59;99659.34;;;26.79;39.18
16331;BME280;8275;48.206;16.340;2023-05-20T08:11:27;99657.19;;;27.00;39.13
16331;BME280;8275;48.206;16.340;2023-05-20T08:13:56;99655.97;;;27.13;38.42
16331;BME280;8275;48.206;16.340;2023-05-20T08:16:24;99657.09;;;27.25;38.04
16331;BME280;8275;48.206;16.340;2023-05-20T08:18:54;99651.66;;;27.32;38.17
16331;BME280;8275;48.206;16.340;2023-05-20T08:21:23;99652.72;;;27.39;37.87
16331;BME280;8275;48.206;16.340;2023-05-20T08:23:51;99650.13;;;27.46;37.98
16331;BME280;8275;48.206;16.340;2023-05-20T08:26:19;99642.66;;;27.54;37.88
16331;BME280;8275;48.206;16.340;2023-05-20T08:28:49;99633.97;;;27.59;38.05
16331;BME280;8275;48.206;16.340;2023-05-20T08:31:18;99641.00;;;27.65;37.57
16331;BME280;8275;48.206;16.340;2023-05-20T08:33:46;99640.69;;;27.70;37.50
16331;BME280;8275;48.206;16.340;2023-05-20T08:36:16;99637.75;;;27.78;37.56
16331;BME280;8275;48.206;16.340;2023-05-20T08:38:45;99627.94;;;27.88;37.07
16331;BME280;8275;48.206;16.340;2023-05-20T08:41:13;99629.84;;;28.00;37.03
16331;BME280;8275;48.206;16.340;2023-05-20T08:43:43;99623.31;;;28.11;37.16
16331;BME280;8275;48.206;16.340;2023-05-20T08:46:11;99616.03;;;28.26;36.93
16331;BME280;8275;48.206;16.340;2023-05-20T08:48:43;99619.22;;;28.40;36.63
16331;BME280;8275;48.206;16.340;2023-05-20T08:51:18;99617.91;;;28.53;36.08
16331;BME280;8275;48.206;16.340;2023-05-20T08:53:50;99617.28;;;28.60;35.86
16331;BME280;8275;48.206;16.340;2023-05-20T08:56:19;99613.34;;;28.64;35.37
16331;BME280;8275;48.206;16.340;2023-05-20T08:58:48;99607.81;;;28.68;35.64
16331;BME280;8275;48.206;16.340;2023-05-20T09:01:16;99615.44;;;28.67;35.41
16331;BME280;8275;48.206;16.340;2023-05-20T09:03:45;99614.19;;;28.65;35.64
16331;BME280;8275;48.206;16.340;2023-05-20T09:06:17;99611.97;;;28.58;35.62
16331;BME280;8275;48.206;16.340;2023-05-20T09:08:48;99607.72;;;28.48;35.44
16331;BME280;8275;48.206;16.340;2023-05-20T09:11:18;99602.03;;;28.45;35.41
16331;BME280;8275;48.206;16.340;2023-05-20T09:13:49;99598.81;;;28.46;35.75
16331;BME280;8275;48.206;16.340;2023-05-20T09:16:17;99592.75;;;28.44;35.62
16331;BME280;8275;48.206;16.340;2023-05-20T09:18:46;99597.09;;;28.42;35.65
16331;BME280;8275;48.206;16.340;2023-05-20T09:21:17;99593.78;;;28.36;36.22
16331;BME280;8275;48.206;16.340;2023-05-20T09:23:46;99592.19;;;28.39;35.96
16331;BME280;8275;48.206;16.340;2023-05-20T09:26:17;99599.09;;;28.41;35.71
16331;BME280;8275;48.206;16.340;2023-05-20T09:28:45;99594.00;;;28.47;35.90
16331;BME280;8275;48.206;16.340;2023-05-20T09:31:14;99598.53;;;28.51;35.59
16331;BME280;8275;48.206;16.340;2023-05-20T09:33:43;99601.00;;;28.53;35.28
16331;BME280;8275;48.206;16.340;2023-05-20T09:36:12;99593.34;;;28.53;35.59
16331;BME280;8275;48.206;16.340;2023-05-20T09:38:44;99589.72;;;28.53;35.59
16331;BME280;8275;48.206;16.340;2023-05-20T09:41:14;99582.97;;;28.58;35.61
16331;BME280;8275;48.206;16.340;2023-05-20T09:43:43;99591.56;;;28.61;35.13
16331;BME280;8275;48.206;16.340;2023-05-20T09:46:12;99592.38;;;28.62;35.35
16331;BME280;8275;48.206;16.340;2023-05-20T09:48:41;99587.47;;;28.59;35.33
16331;BME280;8275;48.206;16.340;2023-05-20T09:51:10;99587.47;;;28.59;35.02
16331;BME280;8275;48.206;16.340;2023-05-20T09:53:40;99579.91;;;28.63;35.09
16331;BME280;8275;48.206;16.340;2023-05-20T09:56:10;99582.66;;;28.59;34.92
16331;BME280;8275;48.206;16.340;2023-05-20T09:58:39;99580.47;;;28.52;34.97
16331;BME280;8275;48.206;16.340;2023-05-20T10:01:09;99579.53;;;28.48;35.18
16331;BME280;8275;48.206;16.340;2023-05-20T10:03:38;99585.94;;;28.45;35.46
16331;BME280;8275;48.206;16.340;2023-05-20T10:06:27;99572.13;;;28.40;35.73
16331;BME280;8275;48.206;16.340;2023-05-20T10:09:23;99573.38;;;28.43;35.84
16331;BME280;8275;48.206;16.340;2023-05-20T10:12:09;99564.19;;;28.46;35.76
16331;BME280;8275;48.206;16.340;2023-05-20T10:14:52;99567.44;;;28.48;35.37
16331;BME280;8275;48.206;16.340;2023-05-20T10:17:28;99559.09;;;28.51;35.27
16331;BME280;8275;48.206;16.340;2023-05-20T10:20:00;99559.91;;;28.52;35.61
16331;BME280;8275;48.206;16.340;2023-05-20T10:22:31;99559.53;;;28.53;35.42
16331;BME280;8275;48.206;16.340;2023-05-20T10:25:04;99547.88;;;28.55;35.73
16331;BME280;8275;48.206;16.340;2023-05-20T10:27:45;99545.88;;;28.56;35.37
16331;BME280;8275;48.206;16.340;2023-05-20T10:30:18;99543.19;;;28.59;35.39
16331;BME280;8275;48.206;16.340;2023-05-20T10:32:51;99540.00;;;28.61;35.41
16331;BME280;8275;48.206;16.340;2023-05-20T10:35:22;99539.25;;;28.64;35.06
16331;BME280;8275;48.206;16.340;2023-05-20T10:37:54;99532.50;;;28.68;35.24
16331;BME280;8275;48.206;16.340;2023-05-20T10:40:24;99531.09;;;28.78;35.16
16331;BME280;8275;48.206;16.340;2023-05-20T10:42:54;99526.34;;;29.01;35.21
16331;BME280;8275;48.206;16.340;2023-05-20T10:45:28;99525.78;;;29.34;35.05
16331;BME280;8275;48.206;16.340;2023-05-20T10:47:58;99520.56;;;29.77;34.71
16331;BME280;8275;48.206;16.340;2023-05-20T10:50:32;99508.81;;;30.28;34.40
16331;BME280;8275;48.206;16.340;2023-05-20T10:53:03;99505.59;;;30.85;34.08
16331;BME280;8275;48.206;16.340;2023-05-20T10:55:36;99507.44;;;31.37;33.73
16331;BME280;8275;48.206;16.340;2023-05-20T10:58:08;99500.56;;;31.82;33.09
16331;BME280;8275;48.206;16.340;2023-05-20T11:00:37;99495.63;;;32.16;32.53
16331;BME280;8275;48.206;16.340;2023-05-20T11:03:07;99495.34;;;32.38;31.99
16331;BME280;8275;48.206;16.340;2023-05-20T11:05:38;99496.75;;;32.73;31.75
16331;BME280;8275;48.206;16.340;2023-05-20T11:08:08;99488.03;;;33.13;31.01
16331;BME280;8275;48.206;16.340;2023-05-20T11:10:55;99484.84;;;33.64;30.46
16331;BME280;8275;48.206;16.340;2023-05-20T11:13:25;99491.34;;;34.24;30.08
16331;BME280;8275;48.206;16.340;2023-05-20T11:15:54;99477.38;;;34.83;29.57
16331;BME280;8275;48.206;16.340;2023-05-20T11:18:25;99477.09;;;35.32;28.79
16331;BME280;8275;48.206;16.340;2023-05-20T11:20:56;99483.69;;;35.80;27.94
16331;BME280;8275;48.206;16.340;2023-05-20T11:23:26;99487.38;;;36.25;27.28
16331;BME280;8275;48.206;16.340;2023-05-20T11:25:56;99473.16;;;36.59;27.02
16331;BME280;8275;48.206;16.340;2023-05-20T11:28:26;99485.06;;;36.84;26.73
16331;BME280;8275;48.206;16.340;2023-05-20T11:30:54;99486.97;;;36.98;26.55
16331;BME280;8275;48.206;16.340;2023-05-20T11:33:25;99486.06;;;37.04;25.85
16331;BME280;8275;48.206;16.340;2023-05-20T11:35:54;99491.38;;;37.02;25.48
16331;BME280;8275;48.206;16.340;2023-05-20T11:38:23;99487.47;;;37.19;25.52
16331;BME280;8275;48.206;16.340;2023-05-20T11:40:52;99492.56;;;37.35;24.68
16331;BME280;8275;48.206;16.340;2023-05-20T11:43:23;99486.63;;;37.53;24.82
16331;BME280;8275;48.206;16.340;2023-05-20T11:45:57;99484.94;;;37.78;24.72
16331;BME280;8275;48.206;16.340;2023-05-20T11:48:26;99479.91;;;38.13;24.53
16331;BME280;8275;48.206;16.340;2023-05-20T11:50:55;99484.22;;;38.44;23.66
16331;BME280;8275;48.206;16.340;2023-05-20T11:53:27;99478.38;;;38.90;23.78
16331;BME280;8275;48.206;16.340;2023-05-20T11:55:57;99483.91;;;39.37;22.71
16331;BME280;8275;48.206;16.340;2023-05-20T11:58:29;99481.38;;;39.74;22.72
16331;BME280;8275;48.206;16.340;2023-05-20T12:00:59;99470.06;;;39.83;21.63
16331;BME280;8275;48.206;16.340;2023-05-20T12:03:48;99482.81;;;39.66;21.82
16331;BME280;8275;48.206;16.340;2023-05-20T12:06:17;99470.75;;;39.39;22.01
16331;BME280;8275;48.206;16.340;2023-05-20T12:08:46;99476.63;;;39.16;21.36
16331;BME280;8275;48.206;16.340;2023-05-20T12:11:14;99470.16;;;38.92;21.50
16331;BME280;8275;48.206;16.340;2023-05-20T12:13:43;99467.53;;;38.82;21.71
16331;BME280;8275;48.206;16.340;2023-05-20T12:16:13;99458.03;;;38.85;21.59
16331;BME280;8275;48.206;16.340;2023-05-20T12:18:41;99458.53;;;38.99;21.32
16331;BME280;8275;48.206;16.340;2023-05-20T12:21:10;99453.22;;;39.17;22.01
16331;BME280;8275;48.206;16.340;2023-05-20T12:23:38;99455.94;;;39.24;21.75
16331;BME280;8275;48.206;16.340;2023-05-20T12:26:07;99454.88;;;39.18;21.10
16331;BME280;8275;48.206;16.340;2023-05-20T12:28:35;99452.34;;;39.20;21.26
16331;BME280;8275;48.206;16.340;2023-05-20T12:31:03;99452.22;;;39.44;20.58
16331;BME280;8275;48.206;16.340;2023-05-20T12:33:33;99440.84;;;39.72;20.30
16331;BME280;8275;48.206;16.340;2023-05-20T12:36:02;99448.09;;;39.93;19.67
16331;BME280;8275;48.206;16.340;2023-05-20T12:38:30;99449.28;;;39.79;20.02
16331;BME280;8275;48.206;16.340;2023-05-20T12:40:59;99446.19;;;39.38;19.68
16331;BME280;8275;48.206;16.340;2023-05-20T12:43:28;99440.97;;;39.17;19.57
16331;BME280;8275;48.206;16.340;2023-05-20T12:46:07;99436.91;;;39.14;20.22
16331;BME280;8275;48.206;16.340;2023-05-20T12:48:35;99440.59;;;39.15;19.85
16331;BME280;8275;48.206;16.340;2023-05-20T12:51:07;99438.22;;;39.29;19.88
16331;BME280;8275;48.206;16.340;2023-05-20T12:53:35;99444.13;;;39.22;19.96
16331;BME280;8275;48.206;16.340;2023-05-20T12:56:04;99426.66;;;38.97;19.43
16331;BME280;8275;48.206;16.340;2023-05-20T12:58:34;99432.84;;;38.76;20.13
16331;BME280;8275;48.206;16.340;2023-05-20T13:01:02;99436.28;;;38.48;19.73
16331;BME280;8275;48.206;16.340;2023-05-20T13:03:32;99427.06;;;38.17;20.17
16331;BME280;8275;48.206;16.340;2023-05-20T13:06:01;99429.72;;;37.85;20.14
16331;BME280;8275;48.206;16.340;2023-05-20T13:08:29;99434.59;;;37.61;20.40
16331;BME280;8275;48.206;16.340;2023-05-20T13:10:58;99425.22;;;37.34;20.74
16331;BME280;8275;48.206;16.340;2023-05-20T13:13:26;99424.44;;;37.30;20.42